sensor_id;sensor_type;location;lat;lon;timestamp;pressure;altitude;pressure_sealevel;temperature;humidity
46534;BME280;32260;52.008;4.752;2023-02-19T00:01:13;101864.41;;;11.49;76.45
46534;BME280;32260;52.008;4.752;2023-02-19T00:03:40;101869.75;;;11.45;77.01
46534;BME280;32260;52.008;4.752;2023-02-19T00:06:09;101867.13;;;11.42;77.18
46534;BME280;32260;52.008;4.752;2023-02-19T00:08:37;101870.63;;;11.44;77.26
46534;BME280;32260;52.008;4.752;2023-02-19T00:11:07;101874.16;;;11.46;76.90
46534;BME280;32260;52.008;4.752;2023-02-19T00:13:37;101878.63;;;11.42;77.09
46534;BME280;32260;52.008;4.752;2023-02-19T00:18:43;101886.63;;;11.38;76.29
46534;BME280;32260;52.008;4.752;2023-02-19T00:21:10;101877.72;;;11.43;76.49
46534;BME280;32260;52.008;4.752;2023-02-19T00:23:36;101875.94;;;11.44;76.21
46534;BME280;32260;52.008;4.752;2023-02-19T00:26:04;101886.59;;;11.41;76.11
46534;BME280;32260;52.008;4.752;2023-02-19T00:28:30;101882.16;;;11.44;75.69
46534;BME280;32260;52.008;4.752;2023-02-19T00:31:05;101877.72;;;11.48;75.83
46534;BME280;32260;52.008;4.752;2023-02-19T00:33:31;101883.88;;;11.50;75.45
46534;BME280;32260;52.008;4.752;2023-02-19T00:36:00;101883.88;;;11.48;75.71
46534;BME280;32260;52.008;4.752;2023-02-19T00:38:27;101883.88;;;11.50;75.28
46534;BME280;32260;52.008;4.752;2023-02-19T00:40:53;101887.38;;;11.54;74.57
46534;BME280;32260;52.008;4.752;2023-02-19T00:43:19;101892.69;;;11.54;75.66
46534;BME280;32260;52.008;4.752;2023-02-19T00:45:45;101889.16;;;11.53;74.84
46534;BME280;32260;52.008;4.752;2023-02-19T00:48:11;101888.31;;;11.45;75.29
46534;BME280;32260;52.008;4.752;2023-02-19T00:50:37;101890.06;;;11.51;74.90
46534;BME280;32260;52.008;4.752;2023-02-19T00:53:03;101892.69;;;11.54;74.45
46534;BME280;32260;52.008;4.752;2023-02-19T00:55:29;101895.31;;;11.58;74.74
46534;BME280;32260;52.008;4.752;2023-02-19T00:57:55;101901.53;;;11.56;74.55
46534;BME280;32260;52.008;4.752;2023-02-19T01:00:21;101895.34;;;11.55;74.37
46534;BME280;32260;52.008;4.752;2023-02-19T01:02:48;101898.00;;;11.57;74.23
46534;BME280;32260;52.008;4.752;2023-02-19T01:05:14;101899.75;;;11.59;74.16
46534;BME280;32260;52.008;4.752;2023-02-19T01:07:40;101906.78;;;11.63;74.08
46534;BME280;32260;52.008;4.752;2023-02-19T01:10:09;101905.00;;;11.65;74.07
46534;BME280;32260;52.008;4.752;2023-02-19T01:12:35;101905.00;;;11.65;74.33
46534;BME280;32260;52.008;4.752;2023-02-19T01:15:01;101911.19;;;11.68;73.67
46534;BME280;32260;52.008;4.752;2023-02-19T01:17:27;101905.03;;;11.64;73.70
46534;BME280;32260;52.008;4.752;2023-02-19T01:19:53;101906.78;;;11.67;73.74
46534;BME280;32260;52.008;4.752;2023-02-19T01:22:19;101897.00;;;11.69;74.24
46534;BME280;32260;52.008;4.752;2023-02-19T01:24:45;101900.53;;;11.71;73.67
46534;BME280;32260;52.008;4.752;2023-02-19T01:27:11;101909.38;;;11.70;73.85
46534;BME280;32260;52.008;4.752;2023-02-19T01:29:37;101917.38;;;11.68;73.32
46534;BME280;32260;52.008;4.752;2023-02-19T01:32:04;101921.84;;;11.63;73.70
46534;BME280;32260;52.008;4.752;2023-02-19T01:34:30;101918.22;;;11.73;73.78
46534;BME280;32260;52.008;4.752;2023-02-19T01:36:58;101909.34;;;11.76;73.16
46534;BME280;32260;52.008;4.752;2023-02-19T01:39:24;101907.56;;;11.78;73.63
46534;BME280;32260;52.008;4.752;2023-02-19T01:41:50;101906.66;;;11.77;72.86
46534;BME280;32260;52.008;4.752;2023-02-19T01:46:54;101905.75;;;11.80;73.13
46534;BME280;32260;52.008;4.752;2023-02-19T01:49:29;101911.94;;;11.85;73.12
46534;BME280;32260;52.008;4.752;2023-02-19T01:52:04;101918.19;;;11.75;72.62
46534;BME280;32260;52.008;4.752;2023-02-19T01:54:35;101915.50;;;11.81;73.00
46534;BME280;32260;52.008;4.752;2023-02-19T01:57:07;101913.72;;;11.83;72.42
46534;BME280;32260;52.008;4.752;2023-02-19T01:59:34;101914.66;;;11.79;73.10
46534;BME280;32260;52.008;4.752;2023-02-19T02:02:01;101911.97;;;11.77;72.85
46534;BME280;32260;52.008;4.752;2023-02-19T02:04:30;101909.31;;;11.77;73.15
46534;BME280;32260;52.008;4.752;2023-02-19T02:07:00;101910.25;;;11.73;73.04
46534;BME280;32260;52.008;4.752;2023-02-19T02:09:29;101918.25;;;11.69;72.84
46534;BME280;32260;52.008;4.752;2023-02-19T02:12:15;101918.28;;;11.65;72.65
46534;BME280;32260;52.008;4.752;2023-02-19T02:14:44;101925.31;;;11.73;72.64
46534;BME280;32260;52.008;4.752;2023-02-19T02:22:41;101923.53;;;11.69;72.78
46534;BME280;32260;52.008;4.752;2023-02-19T02:27:55;101935.97;;;11.63;72.92
46534;BME280;32260;52.008;4.752;2023-02-19T02:30:35;101936.91;;;11.59;72.42
46534;BME280;32260;52.008;4.752;2023-02-19T02:34:23;101946.56;;;11.70;72.06
46534;BME280;32260;52.008;4.752;2023-02-19T02:36:12;101942.16;;;11.65;72.03
46534;BME280;32260;52.008;4.752;2023-02-19T02:38:41;101933.31;;;11.65;72.02
46534;BME280;32260;52.008;4.752;2023-02-19T02:41:09;101943.06;;;11.64;72.07
46534;BME280;32260;52.008;4.752;2023-02-19T02:43:36;101937.66;;;11.74;71.47
46534;BME280;32260;52.008;4.752;2023-02-19T02:46:02;101939.44;;;11.78;71.58
46534;BME280;32260;52.008;4.752;2023-02-19T02:48:35;101942.09;;;11.76;71.63
46534;BME280;32260;52.008;4.752;2023-02-19T02:54:06;101947.41;;;11.73;71.32
46534;BME280;32260;52.008;4.752;2023-02-19T02:56:55;101974.03;;;11.62;71.84
46534;BME280;32260;52.008;4.752;2023-02-19T02:59:24;101961.63;;;11.68;71.39
46534;BME280;32260;52.008;4.752;2023-02-19T03:01:59;101961.63;;;11.68;72.07
46534;BME280;32260;52.008;4.752;2023-02-19T03:05:19;101963.38;;;11.67;72.32
46534;BME280;32260;52.008;4.752;2023-02-19T03:10:50;101957.31;;;11.53;72.74
46534;BME280;32260;52.008;4.752;2023-02-19T03:16:09;101960.88;;;11.42;73.03
46534;BME280;32260;52.008;4.752;2023-02-19T03:18:58;101970.63;;;11.39;73.28
46534;BME280;32260;52.008;4.752;2023-02-19T03:22:06;101967.94;;;11.48;73.15
46534;BME280;32260;52.008;4.752;2023-02-19T03:24:39;101983.03;;;11.33;74.05
46534;BME280;32260;52.008;4.752;2023-02-19T03:27:28;101983.91;;;11.36;73.56
46534;BME280;32260;52.008;4.752;2023-02-19T03:29:58;101972.41;;;11.43;73.03
46534;BME280;32260;52.008;4.752;2023-02-19T03:35:10;101994.47;;;11.45;73.92
46534;BME280;32260;52.008;4.752;2023-02-19T03:37:43;101988.31;;;11.44;73.49
46534;BME280;32260;52.008;4.752;2023-02-19T03:40:11;101987.41;;;11.47;73.62
46534;BME280;32260;52.008;4.752;2023-02-19T03:48:33;101988.31;;;11.44;73.47
46534;BME280;32260;52.008;4.752;2023-02-19T03:51:39;102009.53;;;11.41;74.22
46534;BME280;32260;52.008;4.752;2023-02-19T03:55:05;102006.06;;;11.28;73.69
46534;BME280;32260;52.008;4.752;2023-02-19T03:59:29;102007.00;;;11.15;75.23
46534;BME280;32260;52.008;4.752;2023-02-19T04:02:05;102016.66;;;11.30;74.90
46534;BME280;32260;52.008;4.752;2023-02-19T04:04:38;102023.75;;;11.26;74.47
46534;BME280;32260;52.008;4.752;2023-02-19T04:07:06;102018.44;;;11.25;74.68
46534;BME280;32260;52.008;4.752;2023-02-19T04:09:39;102014.03;;;11.27;74.50
46534;BME280;32260;52.008;4.752;2023-02-19T04:12:07;102012.31;;;11.18;74.96
46534;BME280;32260;52.008;4.752;2023-02-19T04:14:39;102023.81;;;11.15;74.86
46534;BME280;32260;52.008;4.752;2023-02-19T04:17:16;102020.25;;;11.20;74.87
46534;BME280;32260;52.008;4.752;2023-02-19T04:19:47;102019.38;;;11.16;74.58
46534;BME280;32260;52.008;4.752;2023-02-19T04:22:16;102023.81;;;11.09;74.67
46534;BME280;32260;52.008;4.752;2023-02-19T04:24:46;102028.25;;;11.12;74.73
46534;BME280;32260;52.008;4.752;2023-02-19T04:27:14;102031.75;;;11.14;74.50
46534;BME280;32260;52.008;4.752;2023-02-19T04:29:40;102024.69;;;11.16;74.41
46534;BME280;32260;52.008;4.752;2023-02-19T04:32:08;102035.31;;;11.13;74.34
46534;BME280;32260;52.008;4.752;2023-02-19T04:34:35;102030.03;;;11.07;74.70
46534;BME280;32260;52.008;4.752;2023-02-19T04:37:01;102058.28;;;11.08;74.27
46534;BME280;32260;52.008;4.752;2023-02-19T04:39:27;102048.56;;;11.16;74.07
46534;BME280;32260;52.008;4.752;2023-02-19T04:41:53;102064.47;;;11.16;74.25
46534;BME280;32260;52.008;4.752;2023-02-19T04:44:20;102075.09;;;11.14;74.19
46534;BME280;32260;52.008;4.752;2023-02-19T04:46:46;102069.78;;;11.21;74.58
46534;BME280;32260;52.008;4.752;2023-02-19T04:49:12;102076.84;;;11.17;74.44
46534;BME280;32260;52.008;4.752;2023-02-19T04:51:39;102081.28;;;11.18;74.11
46534;BME280;32260;52.008;4.752;2023-02-19T04:54:05;102084.81;;;11.17;74.30
46534;BME280;32260;52.008;4.752;2023-02-19T04:56:31;102091.88;;;11.18;73.79
46534;BME280;32260;52.008;4.752;2023-02-19T04:58:58;102095.41;;;11.20;73.90
46534;BME280;32260;52.008;4.752;2023-02-19T05:01:24;102090.97;;;11.28;73.46
46534;BME280;32260;52.008;4.752;2023-02-19T05:03:51;102094.50;;;11.26;73.49
46534;BME280;32260;52.008;4.752;2023-02-19T05:06:17;102096.28;;;11.28;73.68
46534;BME280;32260;52.008;4.752;2023-02-19T05:08:43;102103.34;;;11.28;73.32
46534;BME280;32260;52.008;4.752;2023-02-19T05:11:11;102107.75;;;11.29;73.42
46534;BME280;32260;52.008;4.752;2023-02-19T05:13:38;102118.38;;;11.27;72.80
46534;BME280;32260;52.008;4.752;2023-02-19T05:16:09;102113.13;;;11.16;73.00
46534;BME280;32260;52.008;4.752;2023-02-19T05:18:38;102134.31;;;11.13;72.70
46534;BME280;32260;52.008;4.752;2023-02-19T05:21:04;102121.06;;;11.03;72.79
46534;BME280;32260;52.008;4.752;2023-02-19T05:23:31;102137.91;;;11.02;72.63
46534;BME280;32260;52.008;4.752;2023-02-19T05:25:57;102149.34;;;11.10;72.27
46534;BME280;32260;52.008;4.752;2023-02-19T05:28:24;102143.16;;;11.14;72.64
46534;BME280;32260;52.008;4.752;2023-02-19T05:30:54;102137.84;;;11.08;72.90
46534;BME280;32260;52.008;4.752;2023-02-19T05:33:23;102144.06;;;11.04;72.87
46534;BME280;32260;52.008;4.752;2023-02-19T05:35:52;102138.75;;;10.99;73.76
46534;BME280;32260;52.008;4.752;2023-02-19T05:38:19;102137.91;;;10.89;73.80
46534;BME280;32260;52.008;4.752;2023-02-19T05:40:45;102137.88;;;10.88;74.16
46534;BME280;32260;52.008;4.752;2023-02-19T05:43:12;102130.81;;;10.85;74.04
46534;BME280;32260;52.008;4.752;2023-02-19T05:45:39;102139.66;;;10.86;73.79
46534;BME280;32260;52.008;4.752;2023-02-19T05:48:06;102129.03;;;10.84;73.68
46534;BME280;32260;52.008;4.752;2023-02-19T05:50:34;102137.91;;;10.83;74.31
46534;BME280;32260;52.008;4.752;2023-02-19T05:53:01;102138.78;;;10.87;73.80
46534;BME280;32260;52.008;4.752;2023-02-19T05:55:28;102139.66;;;10.81;73.77
46534;BME280;32260;52.008;4.752;2023-02-19T05:57:55;102133.47;;;10.83;74.15
46534;BME280;32260;52.008;4.752;2023-02-19T06:00:21;102144.94;;;10.78;74.05
46534;BME280;32260;52.008;4.752;2023-02-19T06:02:48;102148.50;;;10.89;73.86
46534;BME280;32260;52.008;4.752;2023-02-19T06:05:14;102147.63;;;10.93;73.52
46534;BME280;32260;52.008;4.752;2023-02-19T06:07:40;102143.22;;;10.89;73.54
46534;BME280;32260;52.008;4.752;2023-02-19T06:10:08;102157.34;;;10.88;73.81
46534;BME280;32260;52.008;4.752;2023-02-19T06:12:35;102157.34;;;10.88;73.64
46534;BME280;32260;52.008;4.752;2023-02-19T06:15:02;102162.63;;;10.90;73.71
46534;BME280;32260;52.008;4.752;2023-02-19T06:17:29;102176.75;;;10.78;74.57
46534;BME280;32260;52.008;4.752;2023-02-19T06:19:55;102165.28;;;10.85;74.43
46534;BME280;32260;52.008;4.752;2023-02-19T06:22:21;102178.53;;;10.73;75.30
46534;BME280;32260;52.008;4.752;2023-02-19T06:24:48;102180.31;;;10.80;74.87
46534;BME280;32260;52.008;4.752;2023-02-19T06:27:14;102183.84;;;10.79;75.27
46534;BME280;32260;52.008;4.752;2023-02-19T06:29:40;102188.25;;;10.80;75.11
46534;BME280;32260;52.008;4.752;2023-02-19T06:32:06;102190.03;;;10.76;74.97
46534;BME280;32260;52.008;4.752;2023-02-19T06:34:33;102190.03;;;10.73;75.51
46534;BME280;32260;52.008;4.752;2023-02-19T06:37:00;102190.91;;;10.72;75.14
46534;BME280;32260;52.008;4.752;2023-02-19T06:39:26;102190.91;;;10.74;75.49
46534;BME280;32260;52.008;4.752;2023-02-19T06:41:56;102190.94;;;10.77;75.30
46534;BME280;32260;52.008;4.752;2023-02-19T06:44:23;102193.56;;;10.78;74.90
46534;BME280;32260;52.008;4.752;2023-02-19T06:46:49;102196.22;;;10.77;75.05
46534;BME280;32260;52.008;4.752;2023-02-19T06:49:16;102202.41;;;10.76;75.25
46534;BME280;32260;52.008;4.752;2023-02-19T06:51:42;102192.66;;;10.78;75.06
46534;BME280;32260;52.008;4.752;2023-02-19T06:54:08;102199.75;;;10.73;75.05
46534;BME280;32260;52.008;4.752;2023-02-19T06:56:37;102208.59;;;10.72;75.12
46534;BME280;32260;52.008;4.752;2023-02-19T06:59:07;102216.53;;;10.65;75.42
46534;BME280;32260;52.008;4.752;2023-02-19T07:01:34;102217.44;;;10.80;74.95
46534;BME280;32260;52.008;4.752;2023-02-19T07:04:01;102217.44;;;10.77;75.01
46534;BME280;32260;52.008;4.752;2023-02-19T07:06:28;102219.19;;;10.68;75.23
46534;BME280;32260;52.008;4.752;2023-02-19T07:08:56;102227.13;;;10.64;75.39
46534;BME280;32260;52.008;4.752;2023-02-19T07:11:22;102235.06;;;10.62;75.24
46534;BME280;32260;52.008;4.752;2023-02-19T07:13:54;102238.63;;;10.64;74.95
46534;BME280;32260;52.008;4.752;2023-02-19T07:16:21;102248.34;;;10.65;75.11
46534;BME280;32260;52.008;4.752;2023-02-19T07:18:47;102259.81;;;10.66;75.12
46534;BME280;32260;52.008;4.752;2023-02-19T07:21:15;102257.16;;;10.66;75.24
46534;BME280;32260;52.008;4.752;2023-02-19T07:23:42;102271.31;;;10.68;75.44
46534;BME280;32260;52.008;4.752;2023-02-19T07:26:10;102260.72;;;10.68;75.50
46534;BME280;32260;52.008;4.752;2023-02-19T07:28:38;102271.28;;;10.60;75.69
46534;BME280;32260;52.008;4.752;2023-02-19T07:31:04;102284.50;;;10.54;75.91
46534;BME280;32260;52.008;4.752;2023-02-19T07:33:31;102277.50;;;10.68;75.58
46534;BME280;32260;52.008;4.752;2023-02-19T07:35:57;102278.34;;;10.61;75.62
46534;BME280;32260;52.008;4.752;2023-02-19T07:38:25;102283.69;;;10.64;75.80
46534;BME280;32260;52.008;4.752;2023-02-19T07:40:54;102295.13;;;10.60;75.92
46534;BME280;32260;52.008;4.752;2023-02-19T07:43:22;102304.00;;;10.62;76.07
46534;BME280;32260;52.008;4.752;2023-02-19T07:45:49;102304.88;;;10.57;76.43
46534;BME280;32260;52.008;4.752;2023-02-19T07:48:15;102305.75;;;10.59;76.12
46534;BME280;32260;52.008;4.752;2023-02-19T07:50:41;102312.78;;;10.55;76.15
46534;BME280;32260;52.008;4.752;2023-02-19T07:53:07;102321.66;;;10.57;76.05
46534;BME280;32260;52.008;4.752;2023-02-19T07:55:33;102313.72;;;10.63;76.05
46534;BME280;32260;52.008;4.752;2023-02-19T07:58:00;102328.72;;;10.63;76.58
46534;BME280;32260;52.008;4.752;2023-02-19T08:00:27;102329.59;;;10.60;76.75
46534;BME280;32260;52.008;4.752;2023-02-19T08:02:53;102336.66;;;10.63;76.26
46534;BME280;32260;52.008;4.752;2023-02-19T08:05:29;102330.53;;;10.65;76.20
46534;BME280;32260;52.008;4.752;2023-02-19T08:07:56;102347.28;;;10.66;76.02
46534;BME280;32260;52.008;4.752;2023-02-19T08:10:23;102335.78;;;10.62;76.44
46534;BME280;32260;52.008;4.752;2023-02-19T08:13:12;102343.72;;;10.53;76.92
46534;BME280;32260;52.008;4.752;2023-02-19T08:18:31;102359.66;;;10.59;76.48
46534;BME280;32260;52.008;4.752;2023-02-19T08:21:01;102340.16;;;10.54;76.41
46534;BME280;32260;52.008;4.752;2023-02-19T08:23:28;102348.13;;;10.49;76.75
46534;BME280;32260;52.008;4.752;2023-02-19T08:25:57;102359.63;;;10.56;76.59
46534;BME280;32260;52.008;4.752;2023-02-19T08:28:23;102355.19;;;10.55;76.61
46534;BME280;32260;52.008;4.752;2023-02-19T08:30:50;102350.78;;;10.59;76.76
46534;BME280;32260;52.008;4.752;2023-02-19T08:33:18;102357.00;;;10.59;76.85
46534;BME280;32260;52.008;4.752;2023-02-19T08:35:48;102373.78;;;10.63;76.84
46534;BME280;32260;52.008;4.752;2023-02-19T08:38:23;102363.16;;;10.61;76.84
46534;BME280;32260;52.008;4.752;2023-02-19T08:40:49;102382.56;;;10.52;76.66
46534;BME280;32260;52.008;4.752;2023-02-19T08:43:17;102380.88;;;10.67;76.65
46534;BME280;32260;52.008;4.752;2023-02-19T08:45:46;102378.25;;;10.72;76.64
46534;BME280;32260;52.008;4.752;2023-02-19T08:48:13;102380.88;;;10.70;76.39
46534;BME280;32260;52.008;4.752;2023-02-19T08:50:39;102372.91;;;10.62;76.60
46534;BME280;32260;52.008;4.752;2023-02-19T08:53:06;102377.34;;;10.62;76.27
46534;BME280;32260;52.008;4.752;2023-02-19T08:55:32;102367.63;;;10.67;76.49
46534;BME280;32260;52.008;4.752;2023-02-19T08:57:58;102375.56;;;10.62;76.63
46534;BME280;32260;52.008;4.752;2023-02-19T09:00:24;102369.38;;;10.63;76.79
46534;BME280;32260;52.008;4.752;2023-02-19T09:02:52;102372.91;;;10.59;76.58
46534;BME280;32260;52.008;4.752;2023-02-19T09:05:18;102370.25;;;10.59;76.70
46534;BME280;32260;52.008;4.752;2023-02-19T09:07:44;102372.00;;;10.60;77.07
46534;BME280;32260;52.008;4.752;2023-02-19T09:10:12;102369.38;;;10.63;77.03
46534;BME280;32260;52.008;4.752;2023-02-19T09:12:38;102385.31;;;10.73;76.91
46534;BME280;32260;52.008;4.752;2023-02-19T09:15:05;102390.63;;;10.79;76.69
46534;BME280;32260;52.008;4.752;2023-02-19T09:17:31;102389.75;;;10.78;75.93
46534;BME280;32260;52.008;4.752;2023-02-19T09:19:57;102389.75;;;10.81;76.00
46534;BME280;32260;52.008;4.752;2023-02-19T09:22:23;102388.03;;;10.87;76.05
46534;BME280;32260;52.008;4.752;2023-02-19T09:24:50;102396.84;;;10.82;75.98
46534;BME280;32260;52.008;4.752;2023-02-19T09:27:18;102401.25;;;10.85;76.04
46534;BME280;32260;52.008;4.752;2023-02-19T09:29:45;102403.06;;;10.91;75.83
46534;BME280;32260;52.008;4.752;2023-02-19T09:32:11;102419.84;;;10.80;75.96
46534;BME280;32260;52.008;4.752;2023-02-19T09:34:37;102421.63;;;10.92;75.47
46534;BME280;32260;52.008;4.752;2023-02-19T09:37:04;102421.63;;;10.94;75.16
46534;BME280;32260;52.008;4.752;2023-02-19T09:39:31;102432.28;;;11.02;75.54
46534;BME280;32260;52.008;4.752;2023-02-19T09:42:02;102443.78;;;11.04;74.81
46534;BME280;32260;52.008;4.752;2023-02-19T09:44:33;102434.94;;;11.14;74.97
46534;BME280;32260;52.008;4.752;2023-02-19T09:47:02;102442.94;;;11.17;74.78
46534;BME280;32260;52.008;4.752;2023-02-19T09:49:34;102444.78;;;11.43;74.75
46534;BME280;32260;52.008;4.752;2023-02-19T09:52:08;102458.94;;;11.59;74.77
46534;BME280;32260;52.008;4.752;2023-02-19T09:54:38;102445.69;;;11.60;73.66
46534;BME280;32260;52.008;4.752;2023-02-19T09:57:14;102449.22;;;11.52;72.34
46534;BME280;32260;52.008;4.752;2023-02-19T09:59:47;102458.06;;;11.52;72.29
46534;BME280;32260;52.008;4.752;2023-02-19T10:02:21;102466.94;;;11.54;71.48
46534;BME280;32260;52.008;4.752;2023-02-19T10:04:49;102475.75;;;11.56;71.64
46534;BME280;32260;52.008;4.752;2023-02-19T10:07:18;102478.41;;;11.56;71.21
46534;BME280;32260;52.008;4.752;2023-02-19T10:09:54;102481.09;;;11.52;70.52
46534;BME280;32260;52.008;4.752;2023-02-19T10:12:27;102482.84;;;11.49;70.22
46534;BME280;32260;52.008;4.752;2023-02-19T10:15:00;102493.44;;;11.48;70.33
46534;BME280;32260;52.008;4.752;2023-02-19T10:17:35;102504.91;;;11.33;68.73
46534;BME280;32260;52.008;4.752;2023-02-19T10:20:13;102505.78;;;11.30;68.78
46534;BME280;32260;52.008;4.752;2023-02-19T10:22:40;102495.16;;;11.33;68.32
46534;BME280;32260;52.008;4.752;2023-02-19T10:25:13;102509.34;;;11.34;67.90
46534;BME280;32260;52.008;4.752;2023-02-19T10:27:42;102511.03;;;11.21;68.14
46534;BME280;32260;52.008;4.752;2023-02-19T10:30:20;102513.75;;;11.32;68.32
46534;BME280;32260;52.008;4.752;2023-02-19T10:33:10;102524.34;;;11.24;68.46
46534;BME280;32260;52.008;4.752;2023-02-19T10:35:54;102523.41;;;11.16;68.20
46534;BME280;32260;52.008;4.752;2023-02-19T10:38:25;102521.66;;;11.20;68.25
46534;BME280;32260;52.008;4.752;2023-02-19T10:41:02;102535.84;;;11.29;68.21
46534;BME280;32260;52.008;4.752;2023-02-19T10:43:34;102535.81;;;11.25;68.24
46534;BME280;32260;52.008;4.752;2023-02-19T10:46:06;102525.25;;;11.29;67.82
46534;BME280;32260;52.008;4.752;2023-02-19T10:48:37;102538.44;;;11.15;68.47
46534;BME280;32260;52.008;4.752;2023-02-19T10:51:07;102539.31;;;11.16;68.93
46534;BME280;32260;52.008;4.752;2023-02-19T10:53:39;102541.09;;;11.20;68.91
46534;BME280;32260;52.008;4.752;2023-02-19T10:56:09;102549.03;;;11.12;68.73
46534;BME280;32260;52.008;4.752;2023-02-19T10:58:35;102540.16;;;11.07;69.02
46534;BME280;32260;52.008;4.752;2023-02-19T11:01:20;102542.84;;;11.15;69.47
46534;BME280;32260;52.008;4.752;2023-02-19T11:04:25;102538.41;;;11.14;69.42
46534;BME280;32260;52.008;4.752;2023-02-19T11:06:43;102522.53;;;11.20;69.35
46534;BME280;32260;52.008;4.752;2023-02-19T11:09:29;102518.19;;;11.31;69.25
46534;BME280;32260;52.008;4.752;2023-02-19T11:11:59;102523.50;;;11.41;69.32
46534;BME280;32260;52.008;4.752;2023-02-19T11:14:27;102525.31;;;11.48;69.14
46534;BME280;32260;52.008;4.752;2023-02-19T11:16:56;102525.34;;;11.60;69.26
46534;BME280;32260;52.008;4.752;2023-02-19T11:25:22;102527.16;;;11.77;67.23
46534;BME280;32260;52.008;4.752;2023-02-19T11:30:42;102525.38;;;11.67;67.05
46534;BME280;32260;52.008;4.752;2023-02-19T11:36:39;102524.47;;;11.63;67.95
46534;BME280;32260;52.008;4.752;2023-02-19T11:39:30;102532.44;;;11.74;67.71
46534;BME280;32260;52.008;4.752;2023-02-19T11:47:59;102532.41;;;11.49;67.73
46534;BME280;32260;52.008;4.752;2023-02-19T11:51:47;102527.91;;;11.37;68.09
46534;BME280;32260;52.008;4.752;2023-02-19T11:53:32;102524.38;;;11.30;68.14
46534;BME280;32260;52.008;4.752;2023-02-19T11:56:22;102506.66;;;11.31;69.27
46534;BME280;32260;52.008;4.752;2023-02-19T11:59:03;102516.34;;;11.20;69.18
46534;BME280;32260;52.008;4.752;2023-02-19T12:02:49;102519.91;;;11.23;69.20
46534;BME280;32260;52.008;4.752;2023-02-19T12:07:24;102533.97;;;11.11;70.25
46534;BME280;32260;52.008;4.752;2023-02-19T12:13:09;102552.59;;;11.13;70.91
46534;BME280;32260;52.008;4.752;2023-02-19T12:19:02;102548.16;;;11.10;70.85
46534;BME280;32260;52.008;4.752;2023-02-19T12:37:57;102543.69;;;11.03;71.89
46534;BME280;32260;52.008;4.752;2023-02-19T12:43:43;102542.06;;;11.31;72.51
46534;BME280;32260;52.008;4.752;2023-02-19T12:46:20;102545.69;;;11.64;72.21
46534;BME280;32260;52.008;4.752;2023-02-19T12:54:23;102557.22;;;11.67;69.16
46534;BME280;32260;52.008;4.752;2023-02-19T12:59:42;102577.59;;;11.71;68.81
46534;BME280;32260;52.008;4.752;2023-02-19T13:02:37;102585.56;;;11.77;69.18
46534;BME280;32260;52.008;4.752;2023-02-19T13:08:54;102612.94;;;11.65;69.14
46534;BME280;32260;52.008;4.752;2023-02-19T13:11:28;102612.06;;;11.55;69.26
46534;BME280;32260;52.008;4.752;2023-02-19T13:14:10;102619.06;;;11.44;68.63
46534;BME280;32260;52.008;4.752;2023-02-19T13:16:38;102623.38;;;11.25;69.11
46534;BME280;32260;52.008;4.752;2023-02-19T13:19:09;102617.16;;;11.21;69.07
46534;BME280;32260;52.008;4.752;2023-02-19T13:21:40;102621.56;;;11.16;69.22
46534;BME280;32260;52.008;4.752;2023-02-19T13:24:37;102626.00;;;11.17;68.86
46534;BME280;32260;52.008;4.752;2023-02-19T13:27:32;102632.19;;;11.17;69.29
46534;BME280;32260;52.008;4.752;2023-02-19T13:34:17;102629.56;;;11.19;69.79
46534;BME280;32260;52.008;4.752;2023-02-19T13:36:15;102640.22;;;11.25;69.62
46534;BME280;32260;52.008;4.752;2023-02-19T13:38:46;102648.09;;;11.17;69.11
46534;BME280;32260;52.008;4.752;2023-02-19T13:41:20;102664.06;;;11.22;69.86
46534;BME280;32260;52.008;4.752;2023-02-19T13:44:00;102657.88;;;11.26;69.39
46534;BME280;32260;52.008;4.752;2023-02-19T13:46:37;102655.25;;;11.29;69.59
46534;BME280;32260;52.008;4.752;2023-02-19T13:58:49;102672.94;;;11.27;69.52
46534;BME280;32260;52.008;4.752;2023-02-19T14:01:18;102656.91;;;11.13;68.73
46534;BME280;32260;52.008;4.752;2023-02-19T14:06:25;102673.72;;;11.14;69.61
46534;BME280;32260;52.008;4.752;2023-02-19T14:14:38;102680.03;;;11.30;69.37
46534;BME280;32260;52.008;4.752;2023-02-19T14:19:59;102685.44;;;11.48;69.87
46534;BME280;32260;52.008;4.752;2023-02-19T14:25:38;102666.88;;;11.50;69.04
46534;BME280;32260;52.008;4.752;2023-02-19T14:28:21;102650.97;;;11.56;69.04
46534;BME280;32260;52.008;4.752;2023-02-19T14:33:49;102661.63;;;11.62;69.27
46534;BME280;32260;52.008;4.752;2023-02-19T14:36:41;102651.03;;;11.65;68.05
46534;BME280;32260;52.008;4.752;2023-02-19T14:39:18;102658.94;;;11.56;68.03
46534;BME280;32260;52.008;4.752;2023-02-19T14:41:50;102657.16;;;11.54;68.63
46534;BME280;32260;52.008;4.752;2023-02-19T14:44:21;102649.19;;;11.49;68.73
46534;BME280;32260;52.008;4.752;2023-02-19T14:46:52;102648.34;;;11.58;68.42
46534;BME280;32260;52.008;4.752;2023-02-19T14:49:29;102656.22;;;11.44;68.65
46534;BME280;32260;52.008;4.752;2023-02-19T14:52:00;102665.03;;;11.38;69.36
46534;BME280;32260;52.008;4.752;2023-02-19T14:54:53;102650.88;;;11.31;67.95
46534;BME280;32260;52.008;4.752;2023-02-19T14:57:26;102645.44;;;11.17;68.41
46534;BME280;32260;52.008;4.752;2023-02-19T14:59:57;102641.00;;;11.15;68.89
46534;BME280;32260;52.008;4.752;2023-02-19T15:02:29;102639.22;;;11.12;68.25
46534;BME280;32260;52.008;4.752;2023-02-19T15:04:56;102642.75;;;11.11;68.69
46534;BME280;32260;52.008;4.752;2023-02-19T15:07:27;102638.31;;;11.09;68.87
46534;BME280;32260;52.008;4.752;2023-02-19T15:09:57;102633.00;;;11.06;68.17
46534;BME280;32260;52.008;4.752;2023-02-19T15:12:34;102643.53;;;10.96;66.74
46534;BME280;32260;52.008;4.752;2023-02-19T15:15:02;102645.31;;;10.97;67.53